createdAt,value
2019-04-01T00:02:12.355Z,78.64
2019-04-01T00:05:16.234Z,78.76
2019-04-01T00:08:20.155Z,78.86
2019-04-01T00:11:24.033Z,78.96
2019-04-01T00:14:27.846Z,79.10
2019-04-01T00:17:31.658Z,79.21
2019-04-01T00:20:35.496Z,79.27
2019-04-01T00:23:39.325Z,79.38
2019-04-01T00:26:43.155Z,79.40
2019-04-01T00:29:46.946Z,79.48
2019-04-01T00:32:50.769Z,79.69
2019-04-01T00:35:54.591Z,79.72
2019-04-01T00:38:58.481Z,79.78
2019-04-01T00:42:14.722Z,79.94
2019-04-01T00:45:20.204Z,79.88
2019-04-01T00:48:24.144Z,80.11
2019-04-01T00:51:27.952Z,80.27
2019-04-01T00:54:31.808Z,80.34
2019-04-01T00:57:35.662Z,80.48
2019-04-01T01:00:39.625Z,80.47
2019-04-01T01:03:43.600Z,80.70
2019-04-01T01:06:47.397Z,80.89
2019-04-01T01:09:51.362Z,80.86
2019-04-01T01:12:55.247Z,80.73
2019-04-01T01:15:59.048Z,81.00
2019-04-01T01:19:02.845Z,80.93
2019-04-01T01:22:06.653Z,81.00
2019-04-01T01:25:10.547Z,80.97
2019-04-01T01:28:14.360Z,80.85
2019-04-01T01:31:18.169Z,80.81
2019-04-01T01:34:22.050Z,81.17
2019-04-01T01:37:28.999Z,81.60
2019-04-01T01:40:32.790Z,81.51
2019-04-01T01:43:36.654Z,81.17
2019-04-01T01:46:40.445Z,81.05
2019-04-01T01:49:44.259Z,81.13
2019-04-01T01:52:48.158Z,81.20
2019-04-01T01:55:52.027Z,81.15
2019-04-01T01:58:55.833Z,81.21
2019-04-01T02:01:59.704Z,81.27
2019-04-01T02:05:03.563Z,81.45
2019-04-01T02:08:07.348Z,81.49
2019-04-01T02:11:11.303Z,81.63
2019-04-01T02:14:15.113Z,81.81
2019-04-01T02:17:18.907Z,81.77
2019-04-01T02:20:22.710Z,81.85
2019-04-01T02:23:26.523Z,81.79
2019-04-01T02:26:30.389Z,81.81
2019-04-01T02:29:34.219Z,81.99
2019-04-01T02:32:38.026Z,82.07
2019-04-01T02:35:41.841Z,82.23
2019-04-01T02:38:45.663Z,82.35
2019-04-01T02:41:49.473Z,82.44
2019-04-01T02:44:53.298Z,82.50
2019-04-01T02:47:57.209Z,82.56
2019-04-01T02:51:01.200Z,82.51
2019-04-01T02:54:05.181Z,82.60
2019-04-01T02:57:09.052Z,82.53
2019-04-01T03:00:13.823Z,82.54
2019-04-01T03:03:17.717Z,82.80
2019-04-01T03:06:21.520Z,82.88
2019-04-01T03:09:25.327Z,83.03
2019-04-01T03:12:29.139Z,83.18
2019-04-01T03:15:33.016Z,83.17
2019-04-01T03:18:36.818Z,83.22
2019-04-01T03:21:40.651Z,83.28
2019-04-01T03:24:44.503Z,83.36
2019-04-01T03:27:48.295Z,83.46
2019-04-01T03:30:52.154Z,83.47
2019-04-01T03:33:55.902Z,83.64
2019-04-01T03:36:59.729Z,83.75
2019-04-01T03:40:03.717Z,83.64
2019-04-01T03:43:07.529Z,83.85
2019-04-01T03:46:11.313Z,83.96
2019-04-01T03:49:15.205Z,84.08
2019-04-01T03:52:19.036Z,84.12
2019-04-01T03:55:22.836Z,84.03
2019-04-01T03:58:26.651Z,84.18
2019-04-01T04:01:30.724Z,84.37
2019-04-01T04:04:34.735Z,84.53
2019-04-01T04:07:38.633Z,84.66
2019-04-01T04:10:42.517Z,84.72
2019-04-01T04:13:46.303Z,85.06
2019-04-01T04:16:50.095Z,85.18
2019-04-01T04:19:53.918Z,85.23
2019-04-01T04:22:57.884Z,85.30
2019-04-01T04:26:01.742Z,85.29
2019-04-01T04:29:05.642Z,85.21
2019-04-01T04:32:09.533Z,85.24
2019-04-01T04:35:13.434Z,85.26
2019-04-01T04:38:17.332Z,85.30
2019-04-01T04:41:21.223Z,85.39
2019-04-01T04:44:25.012Z,85.37
2019-04-01T04:47:28.828Z,85.41
2019-04-01T04:50:32.617Z,85.40
2019-04-01T04:53:36.575Z,85.61
2019-04-01T04:56:40.407Z,85.64
2019-04-01T04:59:44.294Z,85.68
2019-04-01T05:02:48.175Z,85.58
2019-04-01T05:05:51.967Z,85.47
2019-04-01T05:08:55.801Z,85.56
2019-04-01T05:11:59.660Z,85.58
2019-04-01T05:15:03.727Z,85.53
2019-04-01T05:18:07.676Z,85.57
2019-04-01T05:21:12.398Z,85.72
2019-04-01T05:24:17.335Z,85.69
2019-04-01T05:27:24.302Z,85.82
2019-04-01T05:30:30.979Z,86.05
2019-04-01T05:33:36.503Z,86.10
2019-04-01T05:36:40.479Z,86.15
2019-04-01T05:39:45.033Z,86.41
2019-04-01T05:42:48.978Z,86.26
2019-04-01T05:45:52.849Z,86.35
2019-04-01T05:48:56.802Z,86.56
2019-04-01T05:52:00.687Z,86.53
2019-04-01T05:55:05.017Z,86.98
2019-04-01T05:58:08.949Z,87.26
2019-04-01T06:01:26.495Z,87.52
2019-04-01T06:04:30.457Z,87.31
2019-04-01T06:07:34.743Z,87.01
2019-04-01T06:10:38.703Z,87.52
2019-04-01T06:13:42.683Z,87.66
2019-04-01T06:16:46.736Z,88.15
2019-04-01T06:19:51.535Z,88.21
2019-04-01T06:22:55.508Z,88.44
2019-04-01T06:25:59.667Z,88.35
2019-04-01T06:29:03.638Z,88.12
2019-04-01T06:32:07.611Z,87.56
2019-04-01T06:35:11.495Z,88.09
2019-04-01T06:38:15.805Z,87.79
2019-04-01T06:41:19.696Z,87.92
2019-04-01T06:44:23.593Z,88.73
2019-04-01T06:47:27.584Z,88.41
2019-04-01T06:50:31.450Z,88.33
2019-04-01T06:53:35.515Z,88.53
2019-04-01T06:56:39.477Z,88.70
2019-04-01T06:59:43.364Z,88.98
2019-04-01T07:02:47.355Z,88.26
2019-04-01T07:05:51.323Z,87.19
2019-04-01T07:08:55.306Z,87.54
2019-04-01T07:11:59.273Z,88.55
2019-04-01T07:15:03.218Z,87.91
2019-04-01T07:18:07.081Z,87.62
2019-04-01T07:21:10.984Z,88.44
2019-04-01T07:24:14.810Z,88.53
2019-04-01T07:27:18.606Z,88.52
2019-04-01T07:30:22.535Z,87.75
2019-04-01T07:33:26.525Z,87.50
2019-04-01T07:36:30.402Z,86.92
2019-04-01T07:39:34.317Z,86.24
2019-04-01T07:42:38.180Z,85.78
2019-04-01T07:45:42.133Z,85.54
2019-04-01T07:48:46.705Z,84.72
2019-04-01T07:51:50.551Z,84.37
2019-04-01T07:54:54.693Z,83.76
2019-04-01T07:57:59.838Z,82.78
2019-04-01T08:01:04.030Z,81.37
2019-04-01T08:04:07.843Z,80.30
2019-04-01T08:07:13.539Z,79.41
2019-04-01T08:10:18.041Z,79.17
2019-04-01T08:13:21.860Z,75.38
2019-04-01T08:16:25.757Z,74.19
2019-04-01T08:19:29.764Z,73.63
2019-04-01T08:22:33.646Z,72.70
2019-04-01T08:25:37.563Z,71.83
2019-04-01T08:28:41.519Z,70.60
2019-04-01T08:31:45.377Z,70.21
2019-04-01T08:34:49.347Z,70.13
2019-04-01T08:37:53.384Z,68.47
2019-04-01T08:40:57.293Z,66.70
2019-04-01T08:44:03.204Z,65.11
2019-04-01T08:47:06.844Z,65.12
2019-04-01T08:50:10.803Z,64.28
2019-04-01T08:53:14.604Z,64.66
2019-04-01T08:56:18.570Z,63.20
2019-04-01T08:59:22.771Z,61.40
2019-04-01T09:02:26.587Z,59.48
2019-04-01T09:05:30.578Z,60.14
2019-04-01T09:08:35.354Z,59.96
2019-04-01T09:11:39.730Z,55.81
2019-04-01T09:14:44.585Z,56.21
2019-04-01T09:17:48.440Z,55.98
2019-04-01T09:20:52.240Z,54.26
2019-04-01T09:23:56.041Z,54.76
2019-04-01T09:26:59.969Z,55.28
2019-04-01T09:30:04.645Z,55.29
2019-04-01T09:33:08.530Z,56.19
2019-04-01T09:36:12.397Z,54.70
2019-04-01T09:39:16.207Z,55.05
2019-04-01T09:42:20.091Z,54.68
2019-04-01T09:45:23.892Z,53.93
2019-04-01T09:48:27.679Z,54.43
2019-04-01T09:51:31.516Z,54.19
2019-04-01T09:54:35.495Z,54.87
2019-04-01T09:57:39.311Z,53.85
2019-04-01T10:00:43.260Z,54.07
2019-04-01T10:03:47.066Z,55.05
2019-04-01T10:06:50.859Z,53.14
2019-04-01T10:09:54.670Z,52.24
2019-04-01T10:12:58.559Z,52.75
2019-04-01T10:16:02.534Z,50.61
2019-04-01T10:19:06.426Z,51.49
2019-04-01T10:22:10.320Z,51.65
2019-04-01T10:25:14.287Z,50.88
2019-04-01T10:28:18.161Z,53.43
2019-04-01T10:31:22.026Z,51.62
2019-04-01T10:34:25.899Z,51.40
2019-04-01T10:37:29.772Z,51.61
2019-04-01T10:40:33.590Z,51.11
2019-04-01T10:43:37.412Z,52.14
2019-04-01T10:46:41.265Z,52.51
2019-04-01T10:49:45.139Z,51.89
2019-04-01T10:52:49.045Z,49.46
2019-04-01T10:55:53.026Z,51.41
2019-04-01T10:58:56.982Z,52.86
2019-04-01T11:02:00.979Z,51.42
2019-04-01T11:05:05.365Z,52.54
2019-04-01T11:08:09.310Z,52.30
2019-04-01T11:11:13.107Z,51.47
2019-04-01T11:14:16.974Z,49.32
2019-04-01T11:17:20.843Z,51.82
2019-04-01T11:20:24.805Z,49.96
2019-04-01T11:23:28.680Z,50.50
2019-04-01T11:26:32.495Z,50.79
2019-04-01T11:29:36.302Z,51.07
2019-04-01T11:32:40.700Z,49.49
2019-04-01T11:35:45.856Z,50.28
2019-04-01T11:38:49.852Z,49.47
2019-04-01T11:41:53.770Z,50.38
2019-04-01T11:44:57.694Z,49.57
2019-04-01T11:48:01.619Z,49.90
2019-04-01T11:51:05.571Z,48.04
2019-04-01T11:54:10.180Z,50.83
2019-04-01T11:57:14.307Z,49.88
2019-04-01T12:00:18.793Z,48.26
2019-04-01T12:03:22.688Z,51.03
2019-04-01T12:06:26.498Z,49.09
2019-04-01T12:09:30.379Z,51.29
2019-04-01T12:12:34.170Z,50.49
2019-04-01T12:15:37.966Z,51.36
2019-04-01T12:18:41.827Z,49.05
2019-04-01T12:21:45.715Z,50.83
2019-04-01T12:24:49.507Z,50.13
2019-04-01T12:27:53.415Z,49.10
2019-04-01T12:30:57.312Z,51.51
2019-04-01T12:34:01.167Z,49.38
2019-04-01T12:37:05.045Z,50.75
2019-04-01T12:40:10.170Z,49.62
2019-04-01T12:43:15.249Z,50.47
2019-04-01T12:46:19.413Z,49.25
2019-04-01T12:49:23.301Z,48.70
2019-04-01T12:52:27.100Z,49.13
2019-04-01T12:55:30.898Z,50.87
2019-04-01T12:58:34.703Z,50.79
2019-04-01T13:01:38.504Z,49.65
2019-04-01T13:04:42.324Z,49.95
2019-04-01T13:07:47.619Z,50.66
2019-04-01T13:10:51.489Z,50.20
2019-04-01T13:13:55.308Z,52.66
2019-04-01T13:16:59.160Z,50.96
2019-04-01T13:20:03.046Z,51.66
2019-04-01T13:23:06.830Z,52.68
2019-04-01T13:26:10.690Z,52.39
2019-04-01T13:29:14.526Z,52.02
2019-04-01T13:32:20.131Z,51.11
2019-04-01T13:35:24.085Z,51.88
2019-04-01T13:38:27.887Z,51.84
2019-04-01T13:41:42.134Z,52.22
2019-04-01T13:44:37.852Z,50.54
2019-04-01T13:47:41.740Z,50.52
2019-04-01T13:50:45.532Z,51.57
2019-04-01T13:53:49.355Z,50.58
2019-04-01T13:56:53.180Z,50.37
2019-04-01T13:59:57.044Z,50.99
2019-04-01T14:03:14.634Z,51.51
2019-04-01T14:06:18.430Z,50.66
2019-04-01T14:09:22.340Z,50.09
2019-04-01T14:12:26.237Z,50.95
2019-04-01T14:15:30.050Z,50.56
2019-04-01T14:18:33.911Z,51.28
2019-04-01T14:21:37.803Z,52.36
2019-04-01T14:24:42.707Z,52.77
2019-04-01T14:27:46.692Z,53.00
2019-04-01T14:30:50.672Z,52.60
2019-04-01T14:33:54.466Z,53.27
2019-04-01T14:36:58.286Z,52.22
2019-04-01T14:40:02.120Z,53.84
2019-04-01T14:43:06.027Z,53.22
2019-04-01T14:46:09.892Z,53.58
2019-04-01T14:49:13.715Z,53.46
2019-04-01T14:52:31.540Z,53.75
2019-04-01T14:55:23.111Z,52.96
2019-04-01T14:58:26.951Z,53.79
2019-04-01T15:01:30.754Z,53.14
2019-04-01T15:04:34.576Z,53.02
2019-04-01T15:07:38.379Z,53.14
2019-04-01T15:10:43.267Z,54.81
2019-04-01T15:13:47.172Z,52.70
2019-04-01T15:16:50.983Z,54.57
2019-04-01T15:19:54.817Z,54.04
2019-04-01T15:22:58.619Z,55.09
2019-04-01T15:26:03.638Z,54.75
2019-04-01T15:29:07.648Z,54.40
2019-04-01T15:32:11.549Z,54.46
2019-04-01T15:35:15.513Z,53.70
2019-04-01T15:38:19.400Z,53.94
2019-04-01T15:41:26.545Z,53.74
2019-04-01T15:44:29.427Z,53.50
2019-04-01T15:47:33.401Z,53.17
2019-04-01T15:50:38.327Z,52.74
2019-04-01T15:53:42.352Z,54.45
2019-04-01T15:56:46.168Z,53.00
2019-04-01T15:59:50.158Z,53.14
2019-04-01T16:02:53.966Z,52.81
2019-04-01T16:05:57.779Z,51.69
2019-04-01T16:09:01.593Z,52.43
2019-04-01T16:12:05.503Z,50.44
2019-04-01T16:15:09.752Z,49.86
2019-04-01T16:18:13.595Z,49.71
2019-04-01T16:21:17.497Z,49.07
2019-04-01T16:24:21.390Z,48.64
2019-04-01T16:27:25.213Z,49.59
2019-04-01T16:30:29.175Z,49.56
2019-04-01T16:33:33.065Z,51.86
2019-04-01T16:36:36.870Z,52.04
2019-04-01T16:39:40.669Z,53.35
2019-04-01T16:42:44.546Z,54.96
2019-04-01T16:45:48.356Z,55.33
2019-04-01T16:48:52.223Z,56.74
2019-04-01T16:51:56.102Z,57.68
2019-04-01T16:55:02.301Z,57.60
2019-04-01T16:58:06.257Z,57.96
2019-04-01T17:01:10.209Z,59.02
2019-04-01T17:04:14.022Z,60.47
2019-04-01T17:07:19.560Z,61.31
2019-04-01T17:10:25.148Z,62.54
2019-04-01T17:13:29.103Z,62.83
2019-04-01T17:16:32.910Z,63.40
2019-04-01T17:19:36.740Z,64.72
2019-04-01T17:22:40.574Z,64.66
2019-04-01T17:25:44.356Z,65.75
2019-04-01T17:28:48.169Z,66.54
2019-04-01T17:31:52.069Z,67.42
2019-04-01T17:34:55.878Z,68.12
2019-04-01T17:37:59.696Z,68.66
2019-04-01T17:41:04.259Z,69.10
2019-04-01T17:44:08.140Z,69.36
2019-04-01T17:47:12.154Z,70.04
2019-04-01T17:50:16.240Z,70.54
2019-04-01T17:53:20.274Z,71.31
2019-04-01T17:56:25.025Z,71.89
2019-04-01T17:59:28.971Z,72.15
2019-04-01T18:02:32.872Z,72.48
2019-04-01T18:05:36.933Z,73.01
2019-04-01T18:08:40.819Z,73.09
2019-04-01T18:11:44.613Z,73.74
2019-04-01T18:14:48.420Z,74.31
2019-04-01T18:17:52.294Z,74.67
2019-04-01T18:20:56.109Z,74.97
2019-04-01T18:23:59.986Z,75.30
2019-04-01T18:27:03.792Z,75.56
2019-04-01T18:30:08.518Z,75.49
2019-04-01T18:33:12.311Z,75.64
2019-04-01T18:36:16.127Z,75.59
2019-04-01T18:39:19.929Z,75.81
2019-04-01T18:42:26.578Z,75.90
2019-04-01T18:45:29.271Z,76.28
2019-04-01T18:48:33.167Z,76.21
2019-04-01T18:51:36.979Z,76.59
2019-04-01T18:54:40.776Z,76.88
2019-04-01T18:57:44.633Z,76.89
2019-04-01T19:00:48.505Z,77.17
2019-04-01T19:03:52.403Z,77.69
2019-04-01T19:06:56.285Z,78.15
2019-04-01T19:10:06.076Z,77.76
2019-04-01T19:13:10.035Z,78.01
2019-04-01T19:16:12.981Z,77.62
2019-04-01T19:19:16.819Z,77.59
2019-04-01T19:22:20.612Z,77.82
2019-04-01T19:25:25.738Z,78.16
2019-04-01T19:28:30.062Z,78.53
2019-04-01T19:31:33.887Z,78.61
2019-04-01T19:34:37.806Z,78.52
2019-04-01T19:37:41.710Z,78.71
2019-04-01T19:40:45.536Z,78.93
2019-04-01T19:43:51.138Z,79.37
2019-04-01T19:46:54.999Z,79.68
2019-04-01T19:49:58.816Z,79.74
2019-04-01T19:53:03.026Z,79.96
2019-04-01T19:56:06.961Z,79.90
2019-04-01T19:59:10.902Z,80.07
2019-04-01T20:02:14.947Z,80.73
2019-04-01T20:05:18.857Z,81.25
2019-04-01T20:08:22.718Z,81.29
2019-04-01T20:11:26.646Z,81.60
2019-04-01T20:14:30.465Z,81.98
2019-04-01T20:17:34.349Z,82.37
2019-04-01T20:20:41.270Z,82.69
2019-04-01T20:23:43.710Z,83.14
2019-04-01T20:26:47.612Z,83.39
2019-04-01T20:29:51.449Z,83.41
2019-04-01T20:32:55.403Z,83.63
2019-04-01T20:35:59.323Z,83.92
2019-04-01T20:39:04.052Z,84.52
2019-04-01T20:42:08.010Z,84.56
2019-04-01T20:45:13.493Z,84.94
2019-04-01T20:48:17.651Z,85.11
2019-04-01T20:51:21.444Z,85.09
2019-04-01T20:54:25.320Z,85.08
2019-04-01T20:57:29.136Z,84.91
2019-04-01T21:00:32.967Z,85.32
2019-04-01T21:03:36.814Z,85.70
2019-04-01T21:06:40.635Z,85.69
2019-04-01T21:09:45.219Z,85.79
2019-04-01T21:12:49.487Z,85.55
2019-04-01T21:15:53.358Z,85.37
2019-04-01T21:18:57.177Z,85.35
2019-04-01T21:22:00.968Z,84.53
2019-04-01T21:25:05.115Z,84.65
2019-04-01T21:28:08.981Z,84.20
2019-04-01T21:31:12.897Z,84.08
2019-04-01T21:34:16.720Z,83.74
2019-04-01T21:37:20.580Z,83.55
2019-04-01T21:40:24.543Z,83.39
2019-04-01T21:43:28.353Z,82.94
2019-04-01T21:46:32.251Z,82.86
2019-04-01T21:49:37.058Z,82.69
2019-04-01T21:52:41.302Z,82.26
2019-04-01T21:55:45.197Z,82.11
2019-04-01T21:58:49.163Z,81.88
2019-04-01T22:01:53.486Z,82.09
2019-04-01T22:04:57.348Z,81.75
2019-04-01T22:08:01.235Z,81.24
2019-04-01T22:11:05.209Z,81.09
2019-04-01T22:14:09.106Z,80.91
2019-04-01T22:17:13.002Z,80.61
2019-04-01T22:20:16.944Z,80.32
2019-04-01T22:23:20.771Z,80.17
2019-04-01T22:26:24.574Z,79.95
2019-04-01T22:29:28.428Z,79.86
2019-04-01T22:32:32.210Z,79.83
2019-04-01T22:35:39.070Z,79.82
2019-04-01T22:38:41.657Z,79.51
2019-04-01T22:41:45.457Z,79.22
2019-04-01T22:44:49.255Z,79.12
2019-04-01T22:47:53.148Z,79.20
2019-04-01T22:50:57.783Z,78.92
2019-04-01T22:54:02.251Z,78.72
2019-04-01T22:57:06.440Z,78.46
2019-04-01T23:00:10.483Z,78.62
2019-04-01T23:03:15.214Z,78.48
2019-04-01T23:06:19.035Z,78.22
2019-04-01T23:09:22.845Z,77.81
2019-04-01T23:12:26.726Z,77.53
2019-04-01T23:15:30.538Z,77.47
2019-04-01T23:18:36.150Z,77.39
2019-04-01T23:21:40.061Z,77.20
2019-04-01T23:24:43.965Z,77.04
2019-04-01T23:27:50.626Z,76.93
2019-04-01T23:30:54.531Z,76.74
2019-04-01T23:33:58.343Z,76.70
2019-04-01T23:37:02.169Z,76.83
2019-04-01T23:40:07.591Z,76.88
2019-04-01T23:43:11.439Z,76.19
2019-04-01T23:46:15.392Z,76.44
2019-04-01T23:49:19.225Z,75.97
2019-04-01T23:52:23.050Z,75.87
2019-04-01T23:55:26.854Z,75.78
2019-04-01T23:58:30.662Z,75.84
